createdAt,value
2023-03-18T00:02:49.636Z,10.80
2023-03-18T00:07:49.535Z,10.59
2023-03-18T00:12:49.480Z,10.53
2023-03-18T00:17:49.420Z,10.52
2023-03-18T00:22:49.354Z,10.50
2023-03-18T00:27:49.272Z,10.53
2023-03-18T00:32:49.295Z,10.52
2023-03-18T00:37:49.155Z,10.46
2023-03-18T00:42:49.085Z,10.33
2023-03-18T00:47:49.013Z,10.23
2023-03-18T00:52:48.959Z,10.20
2023-03-18T00:57:48.890Z,10.20
2023-03-18T01:02:48.824Z,10.44
2023-03-18T01:07:48.749Z,10.80
2023-03-18T01:12:48.691Z,11.07
2023-03-18T01:17:48.619Z,11.23
2023-03-18T01:22:48.562Z,11.35
2023-03-18T01:27:48.487Z,11.41
2023-03-18T01:32:48.464Z,11.52
2023-03-18T01:37:48.364Z,11.63
2023-03-18T01:42:48.297Z,11.65
2023-03-18T01:47:48.221Z,11.65
2023-03-18T01:52:48.164Z,11.60
2023-03-18T01:57:48.091Z,11.52
2023-03-18T02:02:48.033Z,11.57
2023-03-18T02:07:47.959Z,11.62
2023-03-18T02:12:47.904Z,11.65
2023-03-18T02:17:47.829Z,11.65
2023-03-18T02:22:47.774Z,11.65
2023-03-18T02:27:47.704Z,11.62
2023-03-18T02:32:47.668Z,11.59
2023-03-18T02:37:47.595Z,11.55
2023-03-18T02:42:47.510Z,11.52
2023-03-18T02:47:47.437Z,11.55
2023-03-18T02:52:47.388Z,11.55
2023-03-18T02:57:47.322Z,11.52
2023-03-18T03:02:47.368Z,11.52
2023-03-18T03:07:47.177Z,11.50
2023-03-18T03:12:47.119Z,11.43
2023-03-18T03:17:47.048Z,11.36
2023-03-18T03:22:46.990Z,11.37
2023-03-18T03:27:46.917Z,11.37
2023-03-18T03:32:46.904Z,11.35
2023-03-18T03:37:46.788Z,11.30
2023-03-18T03:42:46.729Z,11.22
2023-03-18T03:47:46.658Z,11.10
2023-03-18T03:52:46.605Z,11.01
2023-03-18T03:57:46.524Z,10.93
2023-03-18T04:02:46.506Z,10.85
2023-03-18T04:07:46.403Z,10.74
2023-03-18T04:12:46.360Z,10.63
2023-03-18T04:17:46.267Z,10.55
2023-03-18T04:22:46.208Z,10.52
2023-03-18T04:27:46.140Z,10.52
2023-03-18T04:32:46.138Z,10.50
2023-03-18T04:37:46.009Z,10.46
2023-03-18T04:42:45.937Z,10.41
2023-03-18T04:47:45.879Z,10.41
2023-03-18T04:52:45.802Z,10.44
2023-03-18T04:57:45.806Z,10.49
2023-03-18T05:02:45.670Z,10.53
2023-03-18T05:07:45.615Z,10.59
2023-03-18T05:12:45.539Z,10.66
2023-03-18T05:17:45.481Z,10.67
2023-03-18T05:22:45.408Z,10.70
2023-03-18T05:27:45.357Z,10.74
2023-03-18T05:32:45.417Z,10.78
2023-03-18T05:37:45.218Z,10.80
2023-03-18T05:42:55.970Z,10.86
2023-03-18T05:47:46.111Z,10.91
2023-03-18T05:52:45.011Z,10.96
2023-03-18T05:57:44.954Z,10.99
2023-03-18T06:02:44.899Z,11.04
2023-03-18T06:07:44.826Z,11.06
2023-03-18T06:12:44.764Z,11.04
2023-03-18T06:17:44.714Z,11.06
2023-03-18T06:22:44.620Z,11.10
2023-03-18T06:27:44.563Z,11.18
2023-03-18T06:32:44.556Z,11.35
2023-03-18T06:37:44.447Z,11.63
2023-03-18T06:42:44.362Z,12.28
2023-03-18T06:47:44.298Z,12.53
2023-03-18T06:52:44.227Z,12.57
2023-03-18T06:57:44.189Z,12.49
2023-03-18T07:02:44.105Z,12.49
2023-03-18T07:07:44.036Z,12.54
2023-03-18T07:12:43.970Z,12.52
2023-03-18T07:17:43.905Z,12.72
2023-03-18T07:22:43.837Z,13.01
2023-03-18T07:27:43.777Z,13.12
2023-03-18T07:32:43.728Z,13.09
2023-03-18T07:37:43.642Z,13.09
2023-03-18T07:42:43.572Z,13.16
2023-03-18T07:47:44.741Z,13.22
2023-03-18T07:52:43.434Z,13.30
2023-03-18T07:57:43.393Z,13.46
2023-03-18T08:02:43.301Z,13.66
2023-03-18T08:07:43.242Z,14.03
2023-03-18T08:12:52.680Z,14.44
2023-03-18T08:17:43.113Z,14.66
2023-03-18T08:22:43.039Z,15.16
2023-03-18T08:27:43.155Z,15.28
2023-03-18T08:32:42.962Z,15.83
2023-03-18T08:37:42.858Z,17.59
2023-03-18T08:42:42.779Z,19.46
2023-03-18T08:47:42.725Z,19.73
2023-03-18T08:52:42.661Z,19.14
2023-03-18T08:57:42.593Z,19.43
2023-03-18T09:02:42.517Z,19.54
2023-03-18T09:07:42.468Z,19.72
2023-03-18T09:12:42.394Z,20.81
2023-03-18T09:18:00.071Z,22.29
2023-03-18T09:22:43.283Z,22.54
2023-03-18T09:27:42.198Z,22.32
2023-03-18T09:32:42.204Z,22.56
2023-03-18T09:37:42.070Z,23.13
2023-03-18T09:42:41.996Z,23.33
2023-03-18T09:47:41.940Z,23.06
2023-03-18T09:52:41.866Z,23.03
2023-03-18T09:57:41.809Z,22.43
2023-03-18T10:02:41.745Z,23.40
2023-03-18T10:07:41.682Z,23.05
2023-03-18T10:12:41.612Z,20.91
2023-03-18T10:17:41.554Z,19.91
2023-03-18T10:22:41.483Z,19.89
2023-03-18T10:27:41.423Z,20.22
2023-03-18T10:32:49.448Z,20.06
2023-03-18T10:37:41.296Z,19.53
2023-03-18T10:42:41.275Z,19.32
2023-03-18T10:47:41.185Z,21.06
2023-03-18T10:52:41.100Z,22.12
2023-03-18T10:57:41.037Z,20.76
2023-03-18T11:02:41.002Z,20.21
2023-03-18T11:07:40.907Z,20.00
2023-03-18T11:12:40.836Z,19.63
2023-03-18T11:17:40.794Z,19.47
2023-03-18T11:22:40.703Z,19.21
2023-03-18T11:27:40.653Z,18.98
2023-03-18T11:32:40.716Z,19.14
2023-03-18T11:37:40.516Z,19.70
2023-03-18T11:42:40.474Z,20.03
2023-03-18T11:47:40.382Z,21.13
2023-03-18T11:52:40.310Z,21.85
2023-03-18T11:57:40.251Z,21.80
2023-03-18T12:02:40.177Z,21.72
2023-03-18T12:07:40.137Z,21.73
2023-03-18T12:12:40.048Z,21.75
2023-03-18T12:17:39.994Z,21.67
2023-03-18T12:22:39.916Z,21.37
2023-03-18T12:27:39.849Z,21.27
2023-03-18T12:32:39.812Z,21.02
2023-03-18T12:37:39.715Z,20.86
2023-03-18T12:42:39.639Z,20.77
2023-03-18T12:47:39.578Z,20.64
2023-03-18T12:52:39.504Z,20.36
2023-03-18T12:57:39.444Z,20.24
2023-03-18T13:02:39.463Z,20.04
2023-03-18T13:07:39.310Z,19.96
2023-03-18T13:12:39.214Z,19.82
2023-03-18T13:17:39.163Z,19.95
2023-03-18T13:22:39.094Z,19.94
2023-03-18T13:27:39.030Z,19.94
2023-03-18T13:32:38.998Z,19.96
2023-03-18T13:37:38.889Z,19.95
2023-03-18T13:42:38.827Z,19.95
2023-03-18T13:47:38.766Z,20.03
2023-03-18T13:52:38.700Z,20.06
2023-03-18T13:57:38.631Z,20.02
2023-03-18T14:02:38.560Z,19.84
2023-03-18T14:07:38.500Z,19.63
2023-03-18T14:12:38.430Z,19.55
2023-03-18T14:17:38.381Z,19.55
2023-03-18T14:22:38.312Z,19.48
2023-03-18T14:27:38.250Z,19.44
2023-03-18T14:32:38.273Z,19.43
2023-03-18T14:37:38.134Z,19.40
2023-03-18T14:42:38.063Z,19.39
2023-03-18T14:47:39.452Z,19.38
2023-03-18T14:52:37.939Z,19.32
2023-03-18T14:57:37.862Z,19.23
2023-03-18T15:02:37.885Z,19.21
2023-03-18T15:07:37.734Z,19.23
2023-03-18T15:12:37.679Z,19.28
2023-03-18T15:17:37.608Z,19.32
2023-03-18T15:22:37.555Z,19.26
2023-03-18T15:27:37.497Z,19.14
2023-03-18T15:32:37.451Z,19.11
2023-03-18T15:37:37.372Z,19.02
2023-03-18T15:42:37.306Z,19.00
2023-03-18T15:47:37.244Z,19.02
2023-03-18T15:52:37.174Z,19.00
2023-03-18T15:57:37.118Z,18.95
2023-03-18T16:02:37.065Z,18.88
2023-03-18T16:07:36.980Z,18.81
2023-03-18T16:12:36.920Z,18.74
2023-03-18T16:17:36.847Z,18.66
2023-03-18T16:22:36.791Z,18.55
2023-03-18T16:27:36.716Z,18.44
2023-03-18T16:32:36.737Z,18.34
2023-03-18T16:37:36.579Z,18.22
2023-03-18T16:42:36.522Z,18.12
2023-03-18T16:47:36.458Z,17.99
2023-03-18T16:52:36.388Z,17.88
2023-03-18T16:57:36.326Z,17.73
2023-03-18T17:02:36.258Z,17.59
2023-03-18T17:07:36.195Z,17.45
2023-03-18T17:12:36.126Z,17.30
2023-03-18T17:17:36.098Z,17.12
2023-03-18T17:22:36.008Z,16.91
2023-03-18T17:27:35.921Z,16.65
2023-03-18T17:32:35.972Z,16.37
2023-03-18T17:37:35.800Z,16.40
2023-03-18T17:42:35.740Z,16.49
2023-03-18T17:47:35.661Z,16.38
2023-03-18T17:52:35.826Z,16.20
2023-03-18T17:57:35.535Z,15.94
2023-03-18T18:02:35.536Z,16.08
2023-03-18T18:07:35.404Z,15.97
2023-03-18T18:12:35.342Z,15.98
2023-03-18T18:17:35.273Z,15.80
2023-03-18T18:22:35.208Z,15.59
2023-03-18T18:27:35.144Z,15.36
2023-03-18T18:32:35.141Z,15.49
2023-03-18T18:37:35.012Z,15.64
2023-03-18T18:42:34.940Z,15.49
2023-03-18T18:47:34.887Z,15.26
2023-03-18T18:52:34.815Z,15.13
2023-03-18T18:57:34.757Z,14.88
2023-03-18T19:02:34.686Z,14.88
2023-03-18T19:08:29.410Z,15.09
2023-03-18T19:13:29.325Z,15.08
2023-03-18T19:18:29.265Z,14.96
2023-03-18T19:23:29.196Z,14.83
2023-03-18T19:28:29.150Z,14.72
2023-03-18T19:33:29.266Z,14.68
2023-03-18T19:38:28.998Z,14.60
2023-03-18T19:43:28.923Z,14.69
2023-03-18T19:48:28.891Z,14.63
2023-03-18T19:53:28.793Z,14.44
2023-03-18T19:58:28.744Z,14.26
2023-03-18T20:03:28.662Z,14.03
2023-03-18T20:08:28.608Z,13.98
2023-03-18T20:13:28.534Z,13.88
2023-03-18T20:19:23.132Z,13.78
2023-03-18T20:24:23.069Z,13.59
2023-03-18T20:29:22.998Z,13.61
2023-03-18T20:34:22.951Z,13.55
2023-03-18T20:39:22.886Z,13.49
2023-03-18T20:44:22.817Z,13.37
2023-03-18T20:49:22.737Z,13.25
2023-03-18T20:54:22.704Z,13.03
2023-03-18T20:59:22.616Z,13.00
2023-03-18T21:04:22.585Z,12.90
2023-03-18T21:09:22.474Z,12.80
2023-03-18T21:15:17.073Z,12.78
2023-03-18T21:20:22.067Z,12.78
2023-03-18T21:25:16.930Z,12.70
2023-03-18T21:32:06.170Z,12.67
2023-03-18T21:37:06.113Z,12.53
2023-03-18T21:42:06.029Z,12.46
2023-03-18T21:47:05.968Z,12.39
2023-03-18T21:52:05.897Z,12.36
2023-03-18T21:57:05.840Z,12.35
2023-03-18T22:02:05.766Z,12.34
2023-03-18T22:07:05.708Z,12.38
2023-03-18T22:12:05.634Z,12.44
2023-03-18T22:17:05.580Z,12.52
2023-03-18T22:22:05.511Z,12.56
2023-03-18T22:27:05.476Z,12.61
2023-03-18T22:32:05.372Z,12.67
2023-03-18T22:37:05.314Z,12.72
2023-03-18T22:42:05.234Z,12.79
2023-03-18T22:47:05.174Z,12.79
2023-03-18T22:52:05.097Z,12.82
2023-03-18T22:57:05.041Z,12.94
2023-03-18T23:02:05.049Z,13.04
2023-03-18T23:07:04.987Z,13.01
2023-03-18T23:12:04.842Z,12.93
2023-03-18T23:17:04.784Z,12.79
2023-03-18T23:22:04.707Z,12.67
2023-03-18T23:27:04.638Z,12.59
2023-03-18T23:32:04.577Z,12.49
2023-03-18T23:37:04.503Z,12.42
2023-03-18T23:42:04.429Z,12.30
2023-03-18T23:47:04.373Z,12.19
2023-03-18T23:52:04.314Z,12.12
2023-03-18T23:57:04.238Z,12.12
